ACI001 MPTO-SKRG
Flight info
| Callsign | ACI001 |
|---|---|
| Flight time | 0h 54m |
| Altitude | 35000 |
| Route | MPTO SID DCT STAR ILS SKRG |
| Aircraft | B738/M-S/C |
Departure
| Time | 2026-05-06 17:18 |
|---|---|
| Airport | Tocumen International Airport (MPTO) |
Arrival
| Time | 2026-05-06 18:12 |
|---|---|
| Airport | Jose Maria Córdova International Airport (SKRG) |
| Time | Latitude | Longitude | Altitude | Speed | Heading |
|---|---|---|---|---|---|
| 2026-05-06 16:54 | 9.08543 | -79.37566 | 30 ft | 0 kts | 121° |
| 2026-05-06 17:12 | 9.08545 | -79.37569 | 30 ft | 2 kts | 121° |
| 2026-05-06 17:13 | 9.08554 | -79.37584 | 30 ft | 2 kts | 121° |
| 2026-05-06 17:13 | 9.08562 | -79.37598 | 30 ft | 2 kts | 121° |
| 2026-05-06 17:13 | 9.08571 | -79.37613 | 29 ft | 2 kts | 121° |
| 2026-05-06 17:13 | 9.08575 | -79.37628 | 29 ft | 2 kts | 68° |
| 2026-05-06 17:14 | 9.08569 | -79.37638 | 28 ft | 0 kts | 30° |
| 2026-05-06 17:15 | 9.08572 | -79.37637 | 28 ft | 1 kts | 30° |
| 2026-05-06 17:15 | 9.08575 | -79.37634 | 28 ft | 1 kts | 30° |
| 2026-05-06 17:15 | 9.08588 | -79.37627 | 29 ft | 5 kts | 29° |
| 2026-05-06 17:15 | 9.08653 | -79.37590 | 30 ft | 16 kts | 29° |
| 2026-05-06 17:16 | 9.08776 | -79.37519 | 30 ft | 24 kts | 30° |
| 2026-05-06 17:16 | 9.08927 | -79.37436 | 30 ft | 24 kts | 20° |
| 2026-05-06 17:16 | 9.09082 | -79.37390 | 30 ft | 23 kts | 19° |
| 2026-05-06 17:16 | 9.09229 | -79.37342 | 31 ft | 22 kts | 7° |
| 2026-05-06 17:17 | 9.09327 | -79.37441 | 42 ft | 21 kts | 285° |
| 2026-05-06 17:17 | 9.09247 | -79.37549 | 44 ft | 31 kts | 212° |
| 2026-05-06 17:17 | 9.08790 | -79.37817 | 45 ft | 119 kts | 210° |
| 2026-05-06 17:17 | 9.07867 | -79.38366 | 177 ft | 179 kts | 211° |
| 2026-05-06 17:18 | 9.06744 | -79.39092 | 935 ft | 198 kts | 216° |
| 2026-05-06 17:18 | 9.05590 | -79.39886 | 1880 ft | 204 kts | 202° |
| 2026-05-06 17:18 | 9.04187 | -79.39921 | 2581 ft | 207 kts | 154° |
| 2026-05-06 17:18 | 9.03161 | -79.38957 | 3265 ft | 207 kts | 113° |
| 2026-05-06 17:19 | 9.02949 | -79.37459 | 3535 ft | 230 kts | 85° |
| 2026-05-06 17:19 | 9.03052 | -79.35729 | 3834 ft | 259 kts | 86° |
| 2026-05-06 17:19 | 9.03116 | -79.33895 | 4700 ft | 261 kts | 88° |
| 2026-05-06 17:19 | 9.03113 | -79.32048 | 5606 ft | 266 kts | 91° |
| 2026-05-06 17:20 | 9.02953 | -79.30162 | 6441 ft | 271 kts | 98° |
| 2026-05-06 17:20 | 9.02572 | -79.28322 | 7303 ft | 273 kts | 104° |
| 2026-05-06 17:20 | 9.01987 | -79.26483 | 8148 ft | 276 kts | 110° |
| 2026-05-06 17:20 | 9.01241 | -79.24655 | 9011 ft | 279 kts | 113° |
| 2026-05-06 17:21 | 9.00405 | -79.22894 | 9825 ft | 283 kts | 116° |
| 2026-05-06 17:21 | 8.99478 | -79.21115 | 10462 ft | 293 kts | 117° |
| 2026-05-06 17:21 | 8.98442 | -79.19239 | 10650 ft | 318 kts | 118° |
| 2026-05-06 17:21 | 8.97305 | -79.17265 | 11264 ft | 322 kts | 119° |
| 2026-05-06 17:22 | 8.96182 | -79.15366 | 12462 ft | 308 kts | 119° |
| 2026-05-06 17:22 | 8.95087 | -79.13540 | 13571 ft | 301 kts | 118° |
| 2026-05-06 17:22 | 8.93993 | -79.11724 | 14299 ft | 304 kts | 118° |
| 2026-05-06 17:22 | 8.92880 | -79.09883 | 14908 ft | 310 kts | 119° |
| 2026-05-06 17:23 | 8.91746 | -79.08009 | 15513 ft | 315 kts | 119° |
| 2026-05-06 17:23 | 8.90594 | -79.06109 | 16173 ft | 318 kts | 119° |
| 2026-05-06 17:23 | 8.89428 | -79.04189 | 16851 ft | 321 kts | 119° |
| 2026-05-06 17:23 | 8.88252 | -79.02251 | 17511 ft | 325 kts | 119° |
| 2026-05-06 17:24 | 8.87063 | -79.00294 | 18156 ft | 329 kts | 119° |
| 2026-05-06 17:24 | 8.85860 | -78.98313 | 18707 ft | 332 kts | 119° |
| 2026-05-06 17:24 | 8.84684 | -78.96291 | 19192 ft | 335 kts | 117° |
| 2026-05-06 17:24 | 8.83558 | -78.94209 | 19653 ft | 339 kts | 116° |
| 2026-05-06 17:25 | 8.82454 | -78.92119 | 20112 ft | 343 kts | 116° |
| 2026-05-06 17:25 | 8.81327 | -78.89979 | 20599 ft | 346 kts | 116° |
| 2026-05-06 17:25 | 8.80188 | -78.87819 | 21057 ft | 350 kts | 116° |
| 2026-05-06 17:25 | 8.79031 | -78.85635 | 21521 ft | 353 kts | 116° |
| 2026-05-06 17:26 | 8.77864 | -78.83437 | 21980 ft | 357 kts | 116° |
| 2026-05-06 17:26 | 8.76681 | -78.81216 | 22427 ft | 360 kts | 116° |
| 2026-05-06 17:26 | 8.75486 | -78.78975 | 22870 ft | 364 kts | 116° |
| 2026-05-06 17:26 | 8.74278 | -78.76712 | 23306 ft | 367 kts | 116° |
| 2026-05-06 17:27 | 8.73059 | -78.74430 | 23702 ft | 370 kts | 116° |
| 2026-05-06 17:27 | 8.71829 | -78.72128 | 24064 ft | 373 kts | 116° |
| 2026-05-06 17:27 | 8.70608 | -78.69845 | 24425 ft | 376 kts | 116° |
| 2026-05-06 17:27 | 8.69360 | -78.67509 | 24787 ft | 379 kts | 116° |
| 2026-05-06 17:28 | 8.68102 | -78.65158 | 25133 ft | 381 kts | 116° |
| 2026-05-06 17:28 | 8.66833 | -78.62784 | 25501 ft | 384 kts | 116° |
| 2026-05-06 17:28 | 8.65556 | -78.60397 | 25857 ft | 387 kts | 117° |
| 2026-05-06 17:28 | 8.64273 | -78.57999 | 26210 ft | 390 kts | 117° |
| 2026-05-06 17:29 | 8.62977 | -78.55578 | 26563 ft | 393 kts | 117° |
| 2026-05-06 17:29 | 8.61672 | -78.53140 | 26898 ft | 395 kts | 117° |
| 2026-05-06 17:29 | 8.60358 | -78.50684 | 27236 ft | 398 kts | 117° |
| 2026-05-06 17:29 | 8.59036 | -78.48216 | 27574 ft | 401 kts | 117° |
| 2026-05-06 17:30 | 8.57721 | -78.45759 | 27915 ft | 403 kts | 117° |
| 2026-05-06 17:30 | 8.56383 | -78.43262 | 28271 ft | 405 kts | 117° |
| 2026-05-06 17:30 | 8.55036 | -78.40746 | 28611 ft | 408 kts | 117° |
| 2026-05-06 17:30 | 8.53681 | -78.38218 | 28923 ft | 410 kts | 117° |
| 2026-05-06 17:31 | 8.52318 | -78.35675 | 29252 ft | 412 kts | 117° |
| 2026-05-06 17:31 | 8.50949 | -78.33120 | 29557 ft | 415 kts | 117° |
| 2026-05-06 17:31 | 8.49568 | -78.30544 | 29863 ft | 418 kts | 117° |
| 2026-05-06 17:31 | 8.48182 | -78.27959 | 30132 ft | 420 kts | 117° |
| 2026-05-06 17:32 | 8.46784 | -78.25351 | 30399 ft | 422 kts | 117° |
| 2026-05-06 17:32 | 8.45382 | -78.22737 | 30674 ft | 424 kts | 117° |
| 2026-05-06 17:32 | 8.43974 | -78.20112 | 30931 ft | 426 kts | 117° |
| 2026-05-06 17:32 | 8.42558 | -78.17473 | 31180 ft | 428 kts | 117° |
| 2026-05-06 17:33 | 8.41124 | -78.14833 | 31426 ft | 430 kts | 120° |
| 2026-05-06 17:33 | 8.39427 | -78.12377 | 31635 ft | 434 kts | 129° |
| 2026-05-06 17:33 | 8.37419 | -78.10096 | 31889 ft | 435 kts | 131° |
| 2026-05-06 17:33 | 8.35361 | -78.07841 | 32131 ft | 437 kts | 132° |
| 2026-05-06 17:34 | 8.33283 | -78.05581 | 32367 ft | 439 kts | 132° |
| 2026-05-06 17:34 | 8.31201 | -78.03308 | 32586 ft | 441 kts | 131° |
| 2026-05-06 17:34 | 8.29120 | -78.01021 | 32808 ft | 443 kts | 131° |
| 2026-05-06 17:34 | 8.27042 | -77.98722 | 33029 ft | 444 kts | 131° |
| 2026-05-06 17:35 | 8.24958 | -77.96408 | 33247 ft | 446 kts | 131° |
| 2026-05-06 17:35 | 8.22871 | -77.94084 | 33448 ft | 448 kts | 131° |
| 2026-05-06 17:35 | 8.20796 | -77.91772 | 33635 ft | 450 kts | 131° |
| 2026-05-06 17:36 | 8.16568 | -77.87059 | 34038 ft | 453 kts | 131° |
| 2026-05-06 17:36 | 8.14450 | -77.84701 | 34273 ft | 453 kts | 131° |
| 2026-05-06 17:36 | 8.12337 | -77.82348 | 34532 ft | 452 kts | 131° |
| 2026-05-06 17:36 | 8.10221 | -77.79992 | 34731 ft | 453 kts | 131° |
| 2026-05-06 17:37 | 8.08102 | -77.77634 | 34888 ft | 454 kts | 131° |
| 2026-05-06 17:37 | 8.05992 | -77.75286 | 34925 ft | 459 kts | 131° |
| 2026-05-06 17:37 | 8.01687 | -77.70496 | 34929 ft | 460 kts | 131° |
| 2026-05-06 17:38 | 7.97408 | -77.65738 | 34931 ft | 457 kts | 131° |
| 2026-05-06 17:38 | 7.93142 | -77.60996 | 34940 ft | 454 kts | 131° |
| 2026-05-06 17:39 | 7.88925 | -77.56309 | 34943 ft | 453 kts | 131° |
| 2026-05-06 17:39 | 7.84695 | -77.51609 | 34939 ft | 452 kts | 131° |
| 2026-05-06 17:40 | 7.80470 | -77.46915 | 34940 ft | 452 kts | 131° |
| 2026-05-06 17:40 | 7.76240 | -77.42217 | 34951 ft | 451 kts | 131° |
| 2026-05-06 17:41 | 7.72705 | -77.38335 | 34936 ft | 452 kts | 133° |
| 2026-05-06 17:41 | 7.68221 | -77.33891 | 34931 ft | 451 kts | 136° |
| 2026-05-06 17:42 | 7.63662 | -77.29533 | 34921 ft | 451 kts | 136° |
| 2026-05-06 17:42 | 7.59125 | -77.25166 | 34928 ft | 450 kts | 136° |
| 2026-05-06 17:43 | 7.54635 | -77.20809 | 34910 ft | 451 kts | 136° |
| 2026-05-06 17:43 | 7.50115 | -77.16411 | 34916 ft | 452 kts | 136° |
| 2026-05-06 17:44 | 7.45587 | -77.12003 | 34926 ft | 453 kts | 136° |
| 2026-05-06 17:44 | 7.41037 | -77.07578 | 34921 ft | 455 kts | 136° |
| 2026-05-06 17:45 | 7.36478 | -77.03146 | 34915 ft | 456 kts | 135° |
| 2026-05-06 17:45 | 7.31902 | -76.98699 | 34914 ft | 457 kts | 135° |
| 2026-05-06 17:46 | 7.27318 | -76.94245 | 34917 ft | 458 kts | 135° |
| 2026-05-06 17:46 | 7.22728 | -76.89787 | 34917 ft | 459 kts | 135° |
| 2026-05-06 17:47 | 7.18136 | -76.85328 | 34931 ft | 458 kts | 136° |
| 2026-05-06 17:47 | 7.13582 | -76.80908 | 34929 ft | 457 kts | 136° |
| 2026-05-06 17:48 | 7.09012 | -76.76472 | 34926 ft | 455 kts | 136° |
| 2026-05-06 17:48 | 7.04458 | -76.72053 | 34619 ft | 454 kts | 136° |
| 2026-05-06 17:49 | 7.02198 | -76.69861 | 34270 ft | 448 kts | 136° |
| 2026-05-06 17:49 | 6.99966 | -76.67696 | 33861 ft | 442 kts | 136° |
| 2026-05-06 17:49 | 6.97765 | -76.65562 | 33404 ft | 438 kts | 136° |
| 2026-05-06 17:49 | 6.95578 | -76.63443 | 32984 ft | 435 kts | 136° |
| 2026-05-06 17:50 | 6.93407 | -76.61338 | 32566 ft | 432 kts | 136° |
| 2026-05-06 17:50 | 6.91249 | -76.59248 | 32152 ft | 430 kts | 135° |
| 2026-05-06 17:50 | 6.89101 | -76.57166 | 31724 ft | 428 kts | 135° |
| 2026-05-06 17:50 | 6.86955 | -76.55086 | 31255 ft | 427 kts | 135° |
| 2026-05-06 17:51 | 6.84849 | -76.53045 | 30819 ft | 426 kts | 135° |
| 2026-05-06 17:51 | 6.82715 | -76.50978 | 30441 ft | 423 kts | 135° |
| 2026-05-06 17:51 | 6.80603 | -76.48932 | 30087 ft | 421 kts | 135° |
| 2026-05-06 17:51 | 6.78495 | -76.46890 | 29621 ft | 420 kts | 135° |
| 2026-05-06 17:52 | 6.76395 | -76.44856 | 29209 ft | 416 kts | 135° |
| 2026-05-06 17:52 | 6.74315 | -76.42842 | 28807 ft | 413 kts | 135° |
| 2026-05-06 17:52 | 6.72255 | -76.40848 | 28408 ft | 410 kts | 134° |
| 2026-05-06 17:52 | 6.70207 | -76.38866 | 28006 ft | 407 kts | 134° |
| 2026-05-06 17:53 | 6.68181 | -76.36904 | 27601 ft | 404 kts | 135° |
| 2026-05-06 17:53 | 6.66162 | -76.34949 | 27243 ft | 401 kts | 135° |
| 2026-05-06 17:53 | 6.64157 | -76.33009 | 26869 ft | 398 kts | 134° |
| 2026-05-06 17:53 | 6.62192 | -76.31107 | 26539 ft | 394 kts | 134° |
| 2026-05-06 17:54 | 6.60223 | -76.29202 | 26179 ft | 391 kts | 134° |
| 2026-05-06 17:54 | 6.58271 | -76.27312 | 25859 ft | 388 kts | 134° |
| 2026-05-06 17:54 | 6.56332 | -76.25437 | 25497 ft | 385 kts | 134° |
| 2026-05-06 17:54 | 6.54410 | -76.23578 | 25132 ft | 383 kts | 133° |
| 2026-05-06 17:55 | 6.52624 | -76.21609 | 24733 ft | 379 kts | 124° |
| 2026-05-06 17:55 | 6.51112 | -76.19444 | 24365 ft | 377 kts | 123° |
| 2026-05-06 17:55 | 6.49643 | -76.17266 | 24092 ft | 373 kts | 123° |
| 2026-05-06 17:55 | 6.48191 | -76.15102 | 23702 ft | 373 kts | 122° |
| 2026-05-06 17:56 | 6.46740 | -76.12947 | 23328 ft | 371 kts | 123° |
| 2026-05-06 17:56 | 6.45288 | -76.10805 | 22936 ft | 369 kts | 123° |
| 2026-05-06 17:56 | 6.43861 | -76.08710 | 22614 ft | 365 kts | 123° |
| 2026-05-06 17:56 | 6.42429 | -76.06614 | 22277 ft | 362 kts | 123° |
| 2026-05-06 17:57 | 6.41009 | -76.04537 | 21936 ft | 359 kts | 123° |
| 2026-05-06 17:57 | 6.39594 | -76.02467 | 21569 ft | 357 kts | 123° |
| 2026-05-06 17:57 | 6.38190 | -76.00418 | 21227 ft | 355 kts | 122° |
| 2026-05-06 17:57 | 6.36792 | -75.98377 | 20887 ft | 352 kts | 122° |
| 2026-05-06 17:58 | 6.35406 | -75.96354 | 20563 ft | 350 kts | 122° |
| 2026-05-06 17:58 | 6.34033 | -75.94350 | 20237 ft | 347 kts | 122° |
| 2026-05-06 17:58 | 6.32668 | -75.92358 | 19937 ft | 345 kts | 122° |
| 2026-05-06 17:58 | 6.31312 | -75.90379 | 19656 ft | 342 kts | 122° |
| 2026-05-06 17:59 | 6.29981 | -75.88443 | 19376 ft | 340 kts | 122° |
| 2026-05-06 17:59 | 6.28645 | -75.86490 | 19090 ft | 338 kts | 122° |
| 2026-05-06 17:59 | 6.27318 | -75.84551 | 18811 ft | 335 kts | 122° |
| 2026-05-06 17:59 | 6.26643 | -75.83566 | 18675 ft | 334 kts | 122° |
| 2026-05-06 18:00 | 6.25286 | -75.81689 | 18361 ft | 332 kts | 128° |
| 2026-05-06 18:00 | 6.23605 | -75.80096 | 17939 ft | 333 kts | 139° |
| 2026-05-06 18:00 | 6.21754 | -75.78712 | 17603 ft | 331 kts | 140° |
| 2026-05-06 18:00 | 6.19889 | -75.77377 | 17115 ft | 328 kts | 141° |
| 2026-05-06 18:01 | 6.18051 | -75.76025 | 16660 ft | 327 kts | 140° |
| 2026-05-06 18:01 | 6.16230 | -75.74662 | 16382 ft | 324 kts | 140° |
| 2026-05-06 18:01 | 6.14436 | -75.73317 | 16094 ft | 320 kts | 140° |
| 2026-05-06 18:01 | 6.12664 | -75.71987 | 15896 ft | 314 kts | 140° |
| 2026-05-06 18:02 | 6.10941 | -75.70702 | 15753 ft | 304 kts | 140° |
| 2026-05-06 18:02 | 6.09249 | -75.69439 | 15388 ft | 301 kts | 141° |
| 2026-05-06 18:02 | 6.07579 | -75.68189 | 15012 ft | 296 kts | 137° |
| 2026-05-06 18:02 | 6.06146 | -75.66759 | 14658 ft | 293 kts | 129° |
| 2026-05-06 18:03 | 6.05070 | -75.65498 | 14343 ft | 293 kts | 129° |
| 2026-05-06 18:03 | 6.03745 | -75.63992 | 14007 ft | 291 kts | 130° |
| 2026-05-06 18:03 | 6.02410 | -75.62495 | 13866 ft | 283 kts | 130° |
| 2026-05-06 18:03 | 6.01112 | -75.61043 | 13590 ft | 276 kts | 130° |
| 2026-05-06 18:04 | 5.99878 | -75.59660 | 13533 ft | 256 kts | 128° |
| 2026-05-06 18:04 | 5.98732 | -75.58368 | 13394 ft | 240 kts | 131° |
| 2026-05-06 18:04 | 5.97617 | -75.57190 | 13381 ft | 225 kts | 131° |
| 2026-05-06 18:04 | 5.96554 | -75.56073 | 13133 ft | 217 kts | 131° |
| 2026-05-06 18:05 | 5.95534 | -75.54995 | 12889 ft | 209 kts | 131° |
| 2026-05-06 18:05 | 5.94624 | -75.53889 | 12597 ft | 201 kts | 115° |
| 2026-05-06 18:05 | 5.94428 | -75.52569 | 12346 ft | 193 kts | 75° |
| 2026-05-06 18:05 | 5.95264 | -75.51540 | 12153 ft | 203 kts | 29° |
| 2026-05-06 18:06 | 5.96713 | -75.51431 | 12132 ft | 221 kts | 346° |
| 2026-05-06 18:06 | 5.97971 | -75.52312 | 12121 ft | 223 kts | 321° |
| 2026-05-06 18:06 | 5.99302 | -75.53080 | 11913 ft | 219 kts | 350° |
| 2026-05-06 18:06 | 6.00746 | -75.53130 | 11858 ft | 206 kts | 18° |
| 2026-05-06 18:07 | 6.02017 | -75.52510 | 11629 ft | 204 kts | 45° |
| 2026-05-06 18:07 | 6.02817 | -75.51372 | 11384 ft | 195 kts | 73° |
| 2026-05-06 18:07 | 6.02992 | -75.50086 | 11149 ft | 183 kts | 91° |
| 2026-05-06 18:07 | 6.02999 | -75.48841 | 10864 ft | 172 kts | 92° |
| 2026-05-06 18:08 | 6.03002 | -75.47701 | 10724 ft | 155 kts | 91° |
| 2026-05-06 18:08 | 6.02990 | -75.46638 | 10562 ft | 155 kts | 92° |
| 2026-05-06 18:08 | 6.02979 | -75.45547 | 10314 ft | 156 kts | 92° |
| 2026-05-06 18:08 | 6.03119 | -75.44465 | 10084 ft | 164 kts | 60° |
| 2026-05-06 18:09 | 6.04078 | -75.43877 | 9912 ft | 171 kts | 15° |
| 2026-05-06 18:09 | 6.05270 | -75.43723 | 9688 ft | 174 kts | 9° |
| 2026-05-06 18:09 | 6.06376 | -75.43366 | 9441 ft | 164 kts | 35° |
| 2026-05-06 18:09 | 6.07407 | -75.42884 | 9083 ft | 166 kts | 17° |
| 2026-05-06 18:10 | 6.08523 | -75.42604 | 8703 ft | 166 kts | 21° |
| 2026-05-06 18:10 | 6.09675 | -75.42349 | 8258 ft | 172 kts | 7° |
| 2026-05-06 18:10 | 6.10863 | -75.42322 | 7847 ft | 169 kts | 2° |
| 2026-05-06 18:10 | 6.11992 | -75.42326 | 7576 ft | 159 kts | 3° |
| 2026-05-06 18:11 | 6.13134 | -75.42310 | 7450 ft | 171 kts | 5° |
| 2026-05-06 18:11 | 6.14328 | -75.42296 | 7150 ft | 168 kts | 2° |
| 2026-05-06 18:11 | 6.15461 | -75.42305 | 6987 ft | 153 kts | 1° |
| 2026-05-06 18:11 | 6.16415 | -75.42307 | 6983 ft | 116 kts | 359° |
| 2026-05-06 18:12 | 6.16968 | -75.42336 | 7017 ft | 55 kts | 341° |
| 2026-05-06 18:12 | 6.17174 | -75.42454 | 7020 ft | 29 kts | 314° |
| 2026-05-06 18:12 | 6.17207 | -75.42596 | 7017 ft | 19 kts | 321° |